createdAt,value
2018-11-07T00:00:03.992Z,10.05
2018-11-07T00:01:03.717Z,10
2018-11-07T00:02:03.715Z,9.99
2018-11-07T00:03:04.352Z,9.99
2018-11-07T00:04:03.688Z,9.93
2018-11-07T00:05:03.684Z,9.93
2018-11-07T00:06:03.921Z,9.95
2018-11-07T00:07:03.652Z,10.07
2018-11-07T00:08:04.262Z,10.02
2018-11-07T00:09:03.636Z,10
2018-11-07T00:10:03.877Z,10.05
2018-11-07T00:11:03.870Z,9.93
2018-11-07T00:12:03.599Z,9.93
2018-11-07T00:13:03.590Z,10.03
2018-11-07T00:14:04.033Z,10
2018-11-07T00:15:03.569Z,9.98
2018-11-07T00:16:03.559Z,9.92
2018-11-07T00:17:03.546Z,9.95
2018-11-07T00:18:03.537Z,9.9
2018-11-07T00:19:03.784Z,9.98
2018-11-07T00:20:03.520Z,9.95
2018-11-07T00:21:03.505Z,9.99
2018-11-07T00:22:03.750Z,9.99
2018-11-07T00:23:03.738Z,10.03
2018-11-07T00:24:03.730Z,10
2018-11-07T00:25:03.461Z,9.93
2018-11-07T00:26:03.706Z,9.98
2018-11-07T00:27:03.438Z,10
2018-11-07T00:28:03.424Z,10
2018-11-07T00:29:03.416Z,10.05
2018-11-07T00:30:03.834Z,10.05
2018-11-07T00:31:03.653Z,10.05
2018-11-07T00:32:03.651Z,10.08
2018-11-07T00:33:03.637Z,10.03
2018-11-07T00:34:03.360Z,9.95
2018-11-07T00:35:04.056Z,9.96
2018-11-07T00:36:03.341Z,9.93
2018-11-07T00:37:03.325Z,9.98
2018-11-07T00:38:03.582Z,9.93
2018-11-07T00:39:03.565Z,9.92
2018-11-07T00:40:03.552Z,10
2018-11-07T00:41:03.560Z,10.08
2018-11-07T00:42:03.539Z,10.03
2018-11-07T00:43:03.521Z,9.98
2018-11-07T00:44:03.256Z,9.95
2018-11-07T00:45:02.983Z,9.92
2018-11-07T00:46:03.489Z,9.9
2018-11-07T00:47:03.480Z,9.95
2018-11-07T00:48:03.467Z,9.95
2018-11-07T00:49:03.460Z,9.9
2018-11-07T00:50:03.188Z,9.9
2018-11-07T00:51:03.435Z,9.9
2018-11-07T00:52:03.427Z,9.99
2018-11-07T00:53:03.413Z,9.96
2018-11-07T00:54:03.400Z,9.98
2018-11-07T00:55:03.393Z,9.93
2018-11-07T00:56:03.387Z,9.9
2018-11-07T00:57:03.107Z,9.82
2018-11-07T00:58:03.619Z,9.82
2018-11-07T00:59:03.090Z,9.85
2018-11-07T01:00:03.337Z,9.8
2018-11-07T01:01:03.328Z,9.8
2018-11-07T01:02:03.313Z,9.75
2018-11-07T01:03:03.310Z,9.78
2018-11-07T01:04:03.052Z,9.77
2018-11-07T01:05:03.021Z,9.75
2018-11-07T01:06:02.761Z,9.74
2018-11-07T01:07:03.260Z,9.7
2018-11-07T01:08:03.245Z,9.67
2018-11-07T01:09:02.982Z,9.71
2018-11-07T01:10:02.971Z,9.75
2018-11-07T01:11:03.213Z,9.71
2018-11-07T01:12:02.945Z,9.78
2018-11-07T01:13:02.934Z,9.84
2018-11-07T01:14:02.928Z,9.8
2018-11-07T01:15:03.170Z,9.81
2018-11-07T01:16:03.161Z,9.93
2018-11-07T01:17:03.151Z,9.8
2018-11-07T01:18:02.879Z,9.9
2018-11-07T01:19:03.122Z,9.81
2018-11-07T01:20:02.861Z,9.8
2018-11-07T01:21:03.120Z,9.78
2018-11-07T01:22:03.102Z,9.81
2018-11-07T01:23:03.084Z,9.82
2018-11-07T01:24:03.074Z,9.75
2018-11-07T01:25:03.061Z,9.75
2018-11-07T01:26:02.794Z,9.75
2018-11-07T01:27:03.035Z,9.82
2018-11-07T01:28:02.855Z,9.67
2018-11-07T01:29:02.758Z,9.67
2018-11-07T01:30:02.753Z,9.71
2018-11-07T01:31:02.997Z,9.72
2018-11-07T01:32:02.732Z,9.7
2018-11-07T01:33:02.980Z,9.71
2018-11-07T01:34:02.968Z,9.75
2018-11-07T01:35:02.700Z,9.67
2018-11-07T01:36:02.944Z,9.72
2018-11-07T01:37:02.927Z,9.71
2018-11-07T01:38:02.920Z,9.71
2018-11-07T01:39:02.910Z,9.7
2018-11-07T01:40:02.899Z,9.72
2018-11-07T01:41:02.880Z,9.71
2018-11-07T01:42:02.760Z,9.67
2018-11-07T01:43:02.864Z,9.67
2018-11-07T01:44:02.849Z,9.66
2018-11-07T01:45:02.847Z,9.7
2018-11-07T01:46:02.833Z,9.64
2018-11-07T01:47:02.820Z,9.66
2018-11-07T01:48:02.292Z,9.67
2018-11-07T01:49:02.802Z,9.7
2018-11-07T01:50:02.780Z,9.72
2018-11-07T01:51:02.775Z,9.7
2018-11-07T01:52:02.766Z,9.66
2018-11-07T01:53:02.752Z,9.64
2018-11-07T01:54:02.479Z,9.6
2018-11-07T01:55:02.731Z,9.62
2018-11-07T01:56:02.716Z,9.48
2018-11-07T01:57:02.764Z,9.5
2018-11-07T01:58:02.693Z,9.45
2018-11-07T01:59:02.689Z,9.52
2018-11-07T02:00:02.683Z,9.44
2018-11-07T02:01:02.405Z,9.39
2018-11-07T02:02:02.662Z,9.35
2018-11-07T02:03:02.645Z,9.26
2018-11-07T02:04:02.656Z,9.32
2018-11-07T02:05:02.616Z,9.34
2018-11-07T02:06:02.611Z,9.19
2018-11-07T02:07:02.337Z,9.21
2018-11-07T02:08:02.583Z,9.21
2018-11-07T02:09:02.572Z,9.16
2018-11-07T02:10:02.561Z,9.11
2018-11-07T02:11:02.293Z,9.05
2018-11-07T02:12:02.537Z,9.09
2018-11-07T02:13:02.531Z,9.05
2018-11-07T02:14:02.260Z,8.98
2018-11-07T02:15:02.507Z,8.98
2018-11-07T02:16:02.236Z,9.12
2018-11-07T02:17:02.225Z,8.98
2018-11-07T02:18:02.474Z,9.04
2018-11-07T02:19:02.467Z,9.05
2018-11-07T02:20:02.445Z,9
2018-11-07T02:21:01.922Z,9.14
2018-11-07T02:22:02.170Z,9.04
2018-11-07T02:23:02.416Z,8.97
2018-11-07T02:24:02.146Z,9.03
2018-11-07T02:25:02.134Z,9.03
2018-11-07T02:26:02.383Z,9.11
2018-11-07T02:27:02.376Z,9.04
2018-11-07T02:28:02.102Z,9.03
2018-11-07T02:29:02.347Z,9.08
2018-11-07T02:30:02.338Z,9.03
2018-11-07T02:31:02.070Z,9.05
2018-11-07T02:32:02.341Z,9.01
2018-11-07T02:33:02.297Z,9.05
2018-11-07T02:34:02.302Z,9.09
2018-11-07T02:35:02.279Z,9.05
2018-11-07T02:36:02.011Z,9.14
2018-11-07T02:37:02.559Z,9.04
2018-11-07T02:38:01.986Z,9.09
2018-11-07T02:39:01.975Z,9.11
2018-11-07T02:40:01.965Z,9
2018-11-07T02:41:02.208Z,9
2018-11-07T02:42:02.827Z,9.01
2018-11-07T02:43:02.199Z,9.01
2018-11-07T02:44:02.183Z,9.01
2018-11-07T02:45:01.904Z,9.03
2018-11-07T02:46:02.157Z,9.03
2018-11-07T02:47:01.631Z,8.98
2018-11-07T02:48:01.870Z,9.04
2018-11-07T02:49:01.877Z,9.08
2018-11-07T02:50:02.116Z,9.08
2018-11-07T02:51:02.103Z,9.04
2018-11-07T02:52:01.832Z,8.97
2018-11-07T02:53:02.078Z,9.03
2018-11-07T02:54:01.550Z,9
2018-11-07T02:55:02.051Z,9.01
2018-11-07T02:56:02.109Z,9
2018-11-07T02:57:02.033Z,9.04
2018-11-07T02:58:02.015Z,9.01
2018-11-07T02:59:02.007Z,9.03
2018-11-07T03:00:01.733Z,9.01
2018-11-07T03:01:02.118Z,9.01
2018-11-07T03:02:01.971Z,8.9
2018-11-07T03:03:01.700Z,8.89
2018-11-07T03:04:01.953Z,8.92
2018-11-07T03:05:01.676Z,8.97
2018-11-07T03:06:01.667Z,8.98
2018-11-07T03:07:01.923Z,8.94
2018-11-07T03:08:01.643Z,8.92
2018-11-07T03:09:01.629Z,8.89
2018-11-07T03:10:02.018Z,8.85
2018-11-07T03:11:01.609Z,8.86
2018-11-07T03:12:01.604Z,8.79
2018-11-07T03:13:01.329Z,8.72
2018-11-07T03:14:01.838Z,8.77
2018-11-07T03:15:01.314Z,8.77
2018-11-07T03:16:01.811Z,8.71
2018-11-07T03:17:01.800Z,8.69
2018-11-07T03:18:01.785Z,8.74
2018-11-07T03:19:01.780Z,8.69
2018-11-07T03:20:01.766Z,8.76
2018-11-07T03:21:01.753Z,8.72
2018-11-07T03:22:01.734Z,8.69
2018-11-07T03:23:01.470Z,8.74
2018-11-07T03:24:01.714Z,8.74
2018-11-07T03:25:01.713Z,8.62
2018-11-07T03:26:01.699Z,8.62
2018-11-07T03:27:01.674Z,8.67
2018-11-07T03:28:01.677Z,8.6
2018-11-07T03:29:01.663Z,8.62
2018-11-07T03:30:01.648Z,8.58
2018-11-07T03:31:01.137Z,8.6
2018-11-07T03:32:01.643Z,8.49
2018-11-07T03:33:01.356Z,8.57
2018-11-07T03:34:01.340Z,8.67
2018-11-07T03:35:01.583Z,8.58
2018-11-07T03:36:01.585Z,8.49
2018-11-07T03:37:01.565Z,8.49
2018-11-07T03:38:01.549Z,8.54
2018-11-07T03:39:01.550Z,8.54
2018-11-07T03:40:01.706Z,8.53
2018-11-07T03:41:01.518Z,8.47
2018-11-07T03:42:01.502Z,8.39
2018-11-07T03:43:01.496Z,8.47
2018-11-07T03:44:01.221Z,8.4
2018-11-07T03:45:01.472Z,8.36
2018-11-07T03:46:01.458Z,8.34
2018-11-07T03:47:01.189Z,8.35
2018-11-07T03:48:01.170Z,8.26
2018-11-07T03:49:01.450Z,8.25
2018-11-07T03:50:01.152Z,8.35
2018-11-07T03:51:01.398Z,8.31
2018-11-07T03:52:01.388Z,8.28
2018-11-07T03:53:01.568Z,8.43
2018-11-07T03:54:01.103Z,8.43
2018-11-07T03:55:01.093Z,8.4
2018-11-07T03:56:01.351Z,8.35
2018-11-07T03:57:01.327Z,8.44
2018-11-07T03:58:01.323Z,8.29
2018-11-07T03:59:01.303Z,8.24
2018-11-07T04:00:01.288Z,8.19
2018-11-07T04:01:01.280Z,8.22
2018-11-07T04:02:01.269Z,8.17
2018-11-07T04:03:01.259Z,8.06
2018-11-07T04:04:01.251Z,8.21
2018-11-07T04:05:01.236Z,8.16
2018-11-07T04:06:01.217Z,8.06
2018-11-07T04:07:01.216Z,8.11
2018-11-07T04:08:01.194Z,8.06
2018-11-07T04:09:01.185Z,8.24
2018-11-07T04:10:01.168Z,8.19
2018-11-07T04:11:01.156Z,8.17
2018-11-07T04:12:01.147Z,8.21
2018-11-07T04:13:00.875Z,8.26
2018-11-07T04:14:01.121Z,8.31
2018-11-07T04:15:01.127Z,8.36
2018-11-07T04:16:01.096Z,8.35
2018-11-07T04:17:01.089Z,8.46
2018-11-07T04:18:01.072Z,8.47
2018-11-07T04:19:01.069Z,8.49
2018-11-07T04:20:01.055Z,8.6
2018-11-07T04:21:01.036Z,8.67
2018-11-07T04:22:01.036Z,8.61
2018-11-07T04:23:01.013Z,8.62
2018-11-07T04:24:00.754Z,8.58
2018-11-07T04:25:00.988Z,8.57
2018-11-07T04:26:00.972Z,8.58
2018-11-07T04:27:00.968Z,8.57
2018-11-07T04:28:00.955Z,8.5
2018-11-07T04:29:00.692Z,8.46
2018-11-07T04:30:00.924Z,8.44
2018-11-07T04:31:00.911Z,8.46
2018-11-07T04:32:00.908Z,8.35
2018-11-07T04:33:00.893Z,8.43
2018-11-07T04:34:00.882Z,8.42
2018-11-07T04:35:00.866Z,8.4
2018-11-07T04:36:00.858Z,8.32
2018-11-07T04:37:00.589Z,8.35
2018-11-07T04:38:00.835Z,8.34
2018-11-07T04:39:00.760Z,8.34
2018-11-07T04:40:00.811Z,8.4
2018-11-07T04:41:00.800Z,8.42
2018-11-07T04:42:00.529Z,8.43
2018-11-07T04:43:00.772Z,8.5
2018-11-07T04:44:00.765Z,8.5
2018-11-07T04:45:00.755Z,8.54
2018-11-07T04:46:00.735Z,8.54
2018-11-07T04:47:00.723Z,8.61
2018-11-07T04:48:00.713Z,8.61
2018-11-07T04:49:00.703Z,8.49
2018-11-07T04:50:00.683Z,8.46
2018-11-07T04:51:00.683Z,8.54
2018-11-07T04:52:00.411Z,8.6
2018-11-07T04:53:00.661Z,8.53
2018-11-07T04:54:00.645Z,8.53
2018-11-07T04:55:00.627Z,8.49
2018-11-07T04:56:00.617Z,8.44
2018-11-07T04:57:00.349Z,8.47
2018-11-07T04:58:00.333Z,8.36
2018-11-07T04:59:00.576Z,8.36
2018-11-07T05:00:00.774Z,8.21
2018-11-07T05:01:00.558Z,8.25
2018-11-07T05:02:00.550Z,8.22
2018-11-07T05:03:00.275Z,8.21
2018-11-07T05:04:00.519Z,8.14
2018-11-07T05:04:59.992Z,8.13
2018-11-07T05:06:00.236Z,8.16
2018-11-07T05:07:00.495Z,8.16
2018-11-07T05:08:00.534Z,8.25
2018-11-07T05:09:00.458Z,8.22
2018-11-07T05:10:00.190Z,8.19
2018-11-07T05:11:00.431Z,8.19
2018-11-07T05:12:00.425Z,8.19
2018-11-07T05:13:00.413Z,8.22
2018-11-07T05:14:00.397Z,8.16
2018-11-07T05:15:00.380Z,8.25
2018-11-07T05:16:00.372Z,8.06
2018-11-07T05:17:00.367Z,8.06
2018-11-07T05:18:00.349Z,8.04
2018-11-07T05:19:00.344Z,8.04
2018-11-07T05:20:00.325Z,8.06
2018-11-07T05:21:00.309Z,7.93
2018-11-07T05:22:00.305Z,7.83
2018-11-07T05:23:00.032Z,7.86
2018-11-07T05:24:00.021Z,7.78
2018-11-07T05:24:59.749Z,7.85
2018-11-07T05:26:00.095Z,7.77
2018-11-07T05:26:59.985Z,7.73
2018-11-07T05:27:59.969Z,7.63
2018-11-07T05:28:59.955Z,7.56
2018-11-07T05:30:00.202Z,7.54
2018-11-07T05:30:59.933Z,7.52
2018-11-07T05:32:00.517Z,7.48
2018-11-07T05:32:59.915Z,7.54
2018-11-07T05:34:00.153Z,7.55
2018-11-07T05:34:59.883Z,7.54
2018-11-07T05:36:00.129Z,7.47
2018-11-07T05:37:00.152Z,7.51
2018-11-07T05:38:00.107Z,7.52
2018-11-07T05:39:00.091Z,7.49
2018-11-07T05:40:00.081Z,7.52
2018-11-07T05:40:59.894Z,7.49
2018-11-07T05:42:00.055Z,7.63
2018-11-07T05:42:59.784Z,7.68
2018-11-07T05:44:00.032Z,7.75
2018-11-07T05:45:00.021Z,7.8
2018-11-07T05:46:00.003Z,7.78
2018-11-07T05:46:59.995Z,7.96
2018-11-07T05:47:59.982Z,7.95
2018-11-07T05:48:59.872Z,8.03
2018-11-07T05:49:59.964Z,8.03
2018-11-07T05:50:59.947Z,8.04
2018-11-07T05:51:59.986Z,8.11
2018-11-07T05:52:59.707Z,8.11
2018-11-07T05:53:59.391Z,8.09
2018-11-07T05:54:59.897Z,8.1
2018-11-07T05:55:59.880Z,8.16
2018-11-07T05:56:59.868Z,8.09
2018-11-07T05:57:59.861Z,8.26
2018-11-07T05:58:59.841Z,8.24
2018-11-07T05:59:59.829Z,8.35
2018-11-07T06:00:59.818Z,8.26
2018-11-07T06:01:59.804Z,8.26
2018-11-07T06:02:59.794Z,8.22
2018-11-07T06:03:59.784Z,8.32
2018-11-07T06:04:59.772Z,8.22
2018-11-07T06:05:59.807Z,8.34
2018-11-07T06:06:59.228Z,8.22
2018-11-07T06:07:59.732Z,8.21
2018-11-07T06:08:59.717Z,8.24
2018-11-07T06:09:59.703Z,8.26
2018-11-07T06:10:59.446Z,8.26
2018-11-07T06:11:59.429Z,8.26
2018-11-07T06:12:59.669Z,8.29
2018-11-07T06:13:59.402Z,8.22
2018-11-07T06:14:59.659Z,8.31
2018-11-07T06:15:59.718Z,8.31
2018-11-07T06:16:59.623Z,8.26
2018-11-07T06:17:59.616Z,8.34
2018-11-07T06:18:59.600Z,8.32
2018-11-07T06:19:59.588Z,8.25
2018-11-07T06:20:59.579Z,8.4
2018-11-07T06:21:59.570Z,8.31
2018-11-07T06:22:59.621Z,8.43
2018-11-07T06:23:59.535Z,8.42
2018-11-07T06:25:00.198Z,8.47
2018-11-07T06:25:59.254Z,8.42
2018-11-07T06:26:59.501Z,8.4
2018-11-07T06:27:59.494Z,8.5
2018-11-07T06:28:59.220Z,8.47
2018-11-07T06:29:59.459Z,8.49
2018-11-07T06:30:59.200Z,8.53
2018-11-07T06:31:59.438Z,8.49
2018-11-07T06:32:59.170Z,8.54
2018-11-07T06:33:59.684Z,8.53
2018-11-07T06:34:59.397Z,8.58
2018-11-07T06:35:59.394Z,8.62
2018-11-07T06:36:59.384Z,8.61
2018-11-07T06:37:59.105Z,8.47
2018-11-07T06:38:59.102Z,8.6
2018-11-07T06:39:58.826Z,8.62
2018-11-07T06:40:59.332Z,8.65
2018-11-07T06:41:59.321Z,8.61
2018-11-07T06:42:59.053Z,8.72
2018-11-07T06:43:59.306Z,8.68
2018-11-07T06:44:59.283Z,8.72
2018-11-07T06:45:59.010Z,8.76
2018-11-07T06:46:58.999Z,8.76
2018-11-07T06:47:58.990Z,8.83
2018-11-07T06:48:58.720Z,8.82
2018-11-07T06:49:59.223Z,8.85
2018-11-07T06:50:58.950Z,8.85
2018-11-07T06:51:59.213Z,8.85
2018-11-07T06:52:58.928Z,8.85
2018-11-07T06:53:58.911Z,8.82
2018-11-07T06:54:58.906Z,8.89
2018-11-07T06:55:58.901Z,8.85
2018-11-07T06:56:58.879Z,8.85
2018-11-07T06:57:59.126Z,8.94
2018-11-07T06:58:59.165Z,8.86
2018-11-07T06:59:58.848Z,8.97
2018-11-07T07:00:58.832Z,8.9
2018-11-07T07:01:59.078Z,8.83
2018-11-07T07:02:59.074Z,8.95
2018-11-07T07:03:58.799Z,8.94
2018-11-07T07:04:59.041Z,9
2018-11-07T07:05:58.781Z,9
2018-11-07T07:06:58.504Z,8.94
2018-11-07T07:07:59.006Z,8.95
2018-11-07T07:08:59.001Z,8.9
2018-11-07T07:09:58.984Z,8.87
2018-11-07T07:10:58.972Z,8.94
2018-11-07T07:11:58.964Z,8.94
2018-11-07T07:12:58.947Z,8.86
2018-11-07T07:13:58.686Z,9
2018-11-07T07:14:58.680Z,8.87
2018-11-07T07:15:58.657Z,8.95
2018-11-07T07:16:58.901Z,9
2018-11-07T07:17:58.778Z,9.01
2018-11-07T07:18:58.878Z,9.03
2018-11-07T07:19:58.609Z,9
2018-11-07T07:20:58.853Z,8.98
2018-11-07T07:21:58.588Z,9.03
2018-11-07T07:22:58.835Z,9.05
2018-11-07T07:23:58.825Z,9.03
2018-11-07T07:24:58.808Z,9.04
2018-11-07T07:25:58.803Z,9.04
2018-11-07T07:26:58.789Z,9.01
2018-11-07T07:27:58.772Z,9.11
2018-11-07T07:28:58.766Z,9.16
2018-11-07T07:29:59.220Z,9.21
2018-11-07T07:30:58.742Z,9.2
2018-11-07T07:31:58.473Z,9.19
2018-11-07T07:32:58.927Z,9.34
2018-11-07T07:33:58.706Z,9.34
2018-11-07T07:34:58.702Z,9.3
2018-11-07T07:35:58.682Z,9.41
2018-11-07T07:36:58.677Z,9.38
2018-11-07T07:37:58.658Z,9.37
2018-11-07T07:38:58.648Z,9.29
2018-11-07T07:39:58.384Z,9.44
2018-11-07T07:40:58.109Z,9.32
2018-11-07T07:41:58.614Z,9.45
2018-11-07T07:42:58.606Z,9.45
2018-11-07T07:43:58.592Z,9.52
2018-11-07T07:44:58.574Z,9.47
2018-11-07T07:45:58.569Z,9.56
2018-11-07T07:46:58.559Z,9.55
2018-11-07T07:47:58.288Z,9.6
2018-11-07T07:48:58.542Z,9.56
2018-11-07T07:49:58.522Z,9.52
2018-11-07T07:50:58.510Z,9.57
2018-11-07T07:51:58.513Z,9.63
2018-11-07T07:52:58.623Z,9.59
2018-11-07T07:53:58.486Z,9.66
2018-11-07T07:54:58.470Z,9.67
2018-11-07T07:55:58.461Z,9.66
2018-11-07T07:56:58.444Z,9.71
2018-11-07T07:57:58.178Z,9.71
2018-11-07T07:58:58.421Z,9.75
2018-11-07T07:59:58.150Z,9.7
2018-11-07T08:00:58.402Z,9.75
2018-11-07T08:01:58.388Z,9.78
2018-11-07T08:02:58.374Z,9.78
2018-11-07T08:03:58.362Z,9.8
2018-11-07T08:04:58.358Z,9.85
2018-11-07T08:05:58.386Z,9.78
2018-11-07T08:06:58.622Z,9.78
2018-11-07T08:07:58.327Z,9.8
2018-11-07T08:08:58.314Z,9.81
2018-11-07T08:09:58.042Z,9.82
2018-11-07T08:10:58.289Z,9.93
2018-11-07T08:11:58.287Z,9.98
2018-11-07T08:12:58.268Z,9.95
2018-11-07T08:13:58.592Z,9.96
2018-11-07T08:14:58.246Z,9.93
2018-11-07T08:15:57.972Z,9.95
2018-11-07T08:16:58.228Z,10
2018-11-07T08:17:58.209Z,9.88
2018-11-07T08:18:57.945Z,10
2018-11-07T08:19:57.932Z,9.99
2018-11-07T08:20:57.920Z,9.96
2018-11-07T08:21:57.908Z,9.89
2018-11-07T08:22:58.155Z,9.9
2018-11-07T08:23:58.145Z,9.9
2018-11-07T08:24:58.146Z,9.95
2018-11-07T08:25:58.149Z,9.9
2018-11-07T08:26:57.853Z,9.93
2018-11-07T08:27:58.109Z,9.9
2018-11-07T08:28:58.141Z,9.93
2018-11-07T08:29:58.110Z,9.99
2018-11-07T08:30:58.492Z,9.92
2018-11-07T08:31:58.055Z,9.95
2018-11-07T08:32:58.051Z,10.02
2018-11-07T08:33:58.035Z,10.07
2018-11-07T08:34:58.034Z,10.07
2018-11-07T08:35:58.013Z,10.07
2018-11-07T08:36:58.010Z,10.11
2018-11-07T08:37:58.009Z,10.05
2018-11-07T08:38:57.982Z,10.07
2018-11-07T08:39:57.714Z,9.98
2018-11-07T08:40:57.707Z,10.07
2018-11-07T08:41:57.694Z,10.03
2018-11-07T08:42:57.940Z,9.99
2018-11-07T08:43:57.677Z,10.07
2018-11-07T08:44:57.923Z,9.99
2018-11-07T08:45:57.908Z,10.13
2018-11-07T08:46:57.636Z,10.1
2018-11-07T08:47:58.056Z,10.13
2018-11-07T08:48:57.617Z,10.13
2018-11-07T08:49:57.864Z,10.14
2018-11-07T08:50:57.853Z,10.23
2018-11-07T08:51:57.847Z,10.15
2018-11-07T08:52:57.849Z,10.2
2018-11-07T08:53:57.818Z,10.29
2018-11-07T08:54:57.690Z,10.29
2018-11-07T08:55:57.803Z,10.42
2018-11-07T08:56:57.534Z,10.49
2018-11-07T08:57:57.519Z,10.46
2018-11-07T08:58:57.771Z,10.52
2018-11-07T08:59:57.769Z,10.58
2018-11-07T09:00:57.749Z,10.7
2018-11-07T09:01:57.482Z,10.66
2018-11-07T09:02:57.729Z,10.83
2018-11-07T09:03:57.464Z,10.8
2018-11-07T09:04:57.453Z,10.79
2018-11-07T09:05:57.695Z,10.97
2018-11-07T09:06:57.433Z,11.02
2018-11-07T09:07:57.683Z,11.06
2018-11-07T09:08:57.663Z,11.03
2018-11-07T09:09:57.402Z,11.08
2018-11-07T09:10:57.645Z,11.12
2018-11-07T09:11:57.705Z,11.06
2018-11-07T09:12:57.629Z,11.12
2018-11-07T09:13:57.365Z,11.13
2018-11-07T09:14:57.608Z,11.15
2018-11-07T09:15:57.598Z,11.06
2018-11-07T09:16:57.587Z,11.09
2018-11-07T09:17:57.578Z,11.12
2018-11-07T09:18:57.573Z,11.09
2018-11-07T09:19:57.700Z,11.03
2018-11-07T09:20:57.543Z,11.13
2018-11-07T09:21:57.434Z,11.12
2018-11-07T09:22:57.536Z,11.16
2018-11-07T09:23:57.512Z,11.12
2018-11-07T09:24:57.246Z,11.1
2018-11-07T09:25:57.496Z,11.1
2018-11-07T09:26:57.490Z,11.28
2018-11-07T09:27:57.473Z,11.2
2018-11-07T09:28:57.462Z,11.23
2018-11-07T09:29:57.459Z,11.3
2018-11-07T09:30:57.453Z,11.33
2018-11-07T09:31:57.179Z,11.31
2018-11-07T09:32:57.423Z,11.31
2018-11-07T09:33:57.155Z,11.31
2018-11-07T09:34:57.151Z,11.35
2018-11-07T09:35:57.395Z,11.35
2018-11-07T09:36:57.391Z,11.43
2018-11-07T09:37:57.377Z,11.45
2018-11-07T09:38:57.111Z,11.41
2018-11-07T09:39:57.109Z,11.51
2018-11-07T09:40:57.089Z,11.51
2018-11-07T09:41:57.339Z,11.51
2018-11-07T09:42:57.328Z,11.57
2018-11-07T09:43:57.318Z,11.53
2018-11-07T09:44:57.314Z,11.49
2018-11-07T09:45:57.300Z,11.46
2018-11-07T09:46:57.032Z,11.52
2018-11-07T09:47:57.024Z,11.41
2018-11-07T09:48:57.271Z,11.38
2018-11-07T09:49:57.255Z,11.43
2018-11-07T09:50:57.248Z,11.52
2018-11-07T09:51:57.240Z,11.48
2018-11-07T09:52:56.972Z,11.57
2018-11-07T09:53:57.325Z,11.57
2018-11-07T09:54:57.213Z,11.57
2018-11-07T09:55:57.206Z,11.7
2018-11-07T09:56:57.202Z,11.79
2018-11-07T09:57:57.183Z,11.71
2018-11-07T09:58:57.172Z,11.61
2018-11-07T09:59:57.170Z,11.7
2018-11-07T10:00:56.952Z,11.75
2018-11-07T10:01:56.890Z,11.81
2018-11-07T10:02:57.136Z,11.81
2018-11-07T10:03:57.128Z,11.85
2018-11-07T10:04:57.118Z,11.81
2018-11-07T10:05:57.115Z,11.85
2018-11-07T10:06:56.584Z,11.91
2018-11-07T10:07:57.088Z,11.84
2018-11-07T10:08:56.821Z,11.91
2018-11-07T10:09:57.072Z,11.86
2018-11-07T10:10:57.064Z,11.94
2018-11-07T10:11:57.070Z,11.94
2018-11-07T10:12:57.054Z,11.97
2018-11-07T10:13:57.037Z,12.04
2018-11-07T10:14:57.023Z,12.08
2018-11-07T10:15:57.016Z,12.18
2018-11-07T10:16:56.750Z,12.15
2018-11-07T10:17:57.005Z,12.19
2018-11-07T10:18:56.989Z,12.29
2018-11-07T10:19:56.980Z,12.33
2018-11-07T10:20:56.976Z,12.38
2018-11-07T10:21:56.970Z,12.44
2018-11-07T10:22:56.953Z,12.55
2018-11-07T10:23:56.945Z,12.47
2018-11-07T10:24:56.932Z,12.52
2018-11-07T10:25:56.669Z,12.63
2018-11-07T10:26:57.364Z,12.63
2018-11-07T10:27:58.078Z,12.61
2018-11-07T10:28:57.452Z,12.65
2018-11-07T10:29:58.450Z,12.77
2018-11-07T10:30:56.888Z,12.71
2018-11-07T10:31:56.875Z,12.74
2018-11-07T10:32:56.873Z,12.8
2018-11-07T10:33:56.859Z,12.74
2018-11-07T10:34:56.596Z,12.78
2018-11-07T10:35:56.844Z,12.78
2018-11-07T10:36:56.877Z,12.84
2018-11-07T10:37:57.178Z,12.89
2018-11-07T10:38:57.044Z,12.89
2018-11-07T10:39:56.815Z,12.88
2018-11-07T10:40:56.796Z,12.89
2018-11-07T10:41:56.799Z,12.84
2018-11-07T10:42:56.523Z,12.81
2018-11-07T10:43:57.202Z,12.78
2018-11-07T10:44:56.765Z,12.66
2018-11-07T10:45:56.815Z,12.69
2018-11-07T10:46:56.743Z,12.74
2018-11-07T10:47:56.743Z,12.71
2018-11-07T10:48:56.852Z,12.66
2018-11-07T10:49:56.721Z,12.73
2018-11-07T10:50:56.452Z,12.71
2018-11-07T10:51:56.992Z,12.7
2018-11-07T10:52:56.793Z,12.76
2018-11-07T10:53:56.685Z,12.66
2018-11-07T10:54:56.673Z,12.73
2018-11-07T10:55:56.669Z,12.63
2018-11-07T10:56:56.657Z,12.62
2018-11-07T10:57:56.395Z,12.55
2018-11-07T10:58:56.646Z,12.59
2018-11-07T10:59:56.638Z,12.56
2018-11-07T11:00:56.626Z,12.51
2018-11-07T11:01:56.619Z,12.62
2018-11-07T11:02:56.608Z,12.61
2018-11-07T11:03:56.603Z,12.61
2018-11-07T11:04:56.416Z,12.56
2018-11-07T11:05:56.325Z,12.61
2018-11-07T11:06:56.574Z,12.65
2018-11-07T11:07:56.581Z,12.63
2018-11-07T11:08:56.561Z,12.52
2018-11-07T11:09:56.553Z,12.47
2018-11-07T11:10:56.544Z,12.44
2018-11-07T11:11:56.548Z,12.41
2018-11-07T11:12:56.281Z,12.4
2018-11-07T11:13:56.270Z,12.51
2018-11-07T11:14:56.518Z,12.55
2018-11-07T11:15:56.499Z,12.55
2018-11-07T11:16:56.429Z,12.58
2018-11-07T11:17:56.487Z,12.65
2018-11-07T11:18:56.482Z,12.76
2018-11-07T11:19:56.207Z,12.86
2018-11-07T11:20:56.198Z,12.91
2018-11-07T11:21:56.449Z,12.95
2018-11-07T11:22:56.443Z,13.1
2018-11-07T11:23:56.170Z,13.19
2018-11-07T11:24:56.168Z,13.21
2018-11-07T11:25:56.590Z,13.32
2018-11-07T11:26:56.412Z,13.28
2018-11-07T11:27:56.398Z,13.28
2018-11-07T11:28:56.395Z,13.36
2018-11-07T11:29:56.125Z,13.31
2018-11-07T11:30:56.377Z,13.27
2018-11-07T11:31:56.370Z,13.31
2018-11-07T11:32:56.360Z,13.32
2018-11-07T11:33:56.824Z,13.31
2018-11-07T11:34:56.889Z,13.4
2018-11-07T11:35:56.088Z,13.44
2018-11-07T11:36:56.334Z,13.42
2018-11-07T11:37:56.056Z,13.4
2018-11-07T11:38:56.307Z,13.47
2018-11-07T11:39:56.301Z,13.51
2018-11-07T11:40:56.414Z,13.51
2018-11-07T11:41:56.280Z,13.47
2018-11-07T11:42:56.278Z,13.48
2018-11-07T11:43:56.012Z,13.54
2018-11-07T11:44:56.003Z,13.53
2018-11-07T11:45:56.255Z,13.54
2018-11-07T11:46:55.982Z,13.5
2018-11-07T11:47:55.721Z,13.57
2018-11-07T11:48:56.306Z,13.6
2018-11-07T11:49:56.229Z,13.53
2018-11-07T11:50:56.213Z,13.54
2018-11-07T11:51:55.951Z,13.5
2018-11-07T11:52:56.201Z,13.53
2018-11-07T11:53:55.933Z,13.51
2018-11-07T11:54:56.180Z,13.53
2018-11-07T11:55:55.918Z,13.44
2018-11-07T11:56:56.163Z,13.47
2018-11-07T11:57:56.159Z,13.51
2018-11-07T11:58:56.580Z,13.57
2018-11-07T11:59:57.703Z,13.63
2018-11-07T12:00:55.875Z,13.65
2018-11-07T12:01:55.871Z,13.75
2018-11-07T12:02:56.185Z,13.69
2018-11-07T12:03:56.111Z,13.75
2018-11-07T12:04:56.147Z,13.65
2018-11-07T12:05:56.095Z,13.68
2018-11-07T12:06:56.088Z,13.68
2018-11-07T12:07:56.080Z,13.58
2018-11-07T12:08:55.605Z,13.68
2018-11-07T12:09:56.067Z,13.65
2018-11-07T12:10:55.800Z,13.58
2018-11-07T12:11:55.837Z,13.51
2018-11-07T12:12:56.049Z,13.57
2018-11-07T12:13:56.035Z,13.53
2018-11-07T12:14:56.029Z,13.5
2018-11-07T12:15:55.759Z,13.48
2018-11-07T12:16:56.027Z,13.42
2018-11-07T12:17:56.005Z,13.51
2018-11-07T12:18:55.996Z,13.45
2018-11-07T12:19:55.985Z,13.48
2018-11-07T12:20:56.033Z,13.51
2018-11-07T12:21:55.973Z,13.55
2018-11-07T12:22:55.704Z,13.58
2018-11-07T12:23:55.959Z,13.63
2018-11-07T12:24:55.948Z,13.69
2018-11-07T12:25:55.966Z,13.72
2018-11-07T12:26:56.313Z,13.68
2018-11-07T12:27:55.929Z,13.73
2018-11-07T12:28:55.657Z,13.73
2018-11-07T12:29:55.921Z,13.78
2018-11-07T12:30:55.899Z,13.76
2018-11-07T12:31:55.899Z,13.86
2018-11-07T12:32:55.887Z,13.88
2018-11-07T12:33:55.884Z,13.95
2018-11-07T12:34:55.876Z,13.87
2018-11-07T12:35:55.609Z,13.86
2018-11-07T12:36:55.598Z,13.75
2018-11-07T12:37:55.855Z,13.73
2018-11-07T12:38:55.585Z,13.65
2018-11-07T12:39:55.844Z,13.68
2018-11-07T12:40:55.824Z,13.65
2018-11-07T12:41:55.569Z,13.55
2018-11-07T12:42:56.239Z,13.62
2018-11-07T12:43:55.809Z,13.53
2018-11-07T12:44:55.809Z,13.55
2018-11-07T12:45:55.792Z,13.5
2018-11-07T12:46:55.781Z,13.45
2018-11-07T12:47:55.781Z,13.45
2018-11-07T12:48:55.767Z,13.31
2018-11-07T12:49:56.133Z,13.42
2018-11-07T12:50:55.809Z,13.39
2018-11-07T12:51:55.740Z,13.36
2018-11-07T12:52:55.477Z,13.29
2018-11-07T12:53:55.210Z,13.29
2018-11-07T12:54:55.719Z,13.37
2018-11-07T12:55:55.454Z,13.25
2018-11-07T12:56:55.748Z,13.29
2018-11-07T12:57:55.689Z,13.21
2018-11-07T12:58:55.696Z,13.29
2018-11-07T12:59:55.676Z,13.28
2018-11-07T13:00:55.671Z,13.31
2018-11-07T13:01:55.408Z,13.32
2018-11-07T13:02:55.873Z,13.29
2018-11-07T13:03:55.649Z,13.28
2018-11-07T13:04:55.641Z,13.25
2018-11-07T13:05:55.632Z,13.24
2018-11-07T13:06:55.623Z,13.35
2018-11-07T13:07:55.359Z,13.39
2018-11-07T13:08:55.610Z,13.25
2018-11-07T13:09:55.345Z,13.35
2018-11-07T13:10:55.336Z,13.29
2018-11-07T13:11:55.586Z,13.36